Arethusa — 9HJR9 — position and weather

sailwx.info

Track history (hours):
 
Tides and Currents Weather Stations Pressure Air Temp Water Temp Dewpoint Dewpoint Depression Visibility Wind Speed Wind Dir Waves Ship Positions

Arethusa

Last reported at 2014-Aug-31 01:33 UTC. Time now 2014-Aug-31 02:34 UTC.
Position N 43°42' E 007°17'.

Length 60 m; draft 3 m.

Type: Passenger vessel. MMSI: 249069000.

Date/timePositionNaut miles runAvg speedWind from/ knotsBaromVisibWave heightAir tempDewpointWater temp
2014-Aug-31 01:33N 43°42' E 007°17'0 0.0
2014-Aug-31 00:33N 43°42' E 007°17'0 0.0
2014-Aug-30 23:33N 43°42' E 007°17'0 0.0
2014-Aug-30 22:33N 43°42' E 007°17'0 0.0
2014-Aug-30 21:33N 43°42' E 007°17'0 0.0
2014-Aug-30 20:33N 43°42' E 007°17'0 0.0
2014-Aug-30 19:33N 43°42' E 007°17'0 0.0
2014-Aug-30 18:33N 43°42' E 007°17'0 0.0
2014-Aug-30 17:33N 43°42' E 007°17'0 0.0
2014-Aug-30 16:33N 43°42' E 007°17'0 0.0
2014-Aug-30 15:33N 43°42' E 007°17'0 0.0
2014-Aug-30 14:33N 43°42' E 007°17'0 0.0
2014-Aug-30 13:33N 43°42' E 007°17'0 0.0
2014-Aug-30 12:33N 43°42' E 007°17'0 0.0
2014-Aug-30 11:33N 43°42' E 007°17'0 0.0
2014-Aug-30 10:33N 43°42' E 007°17'0 0.0
2014-Aug-30 09:33N 43°42' E 007°17'0 0.0
2014-Aug-30 08:33N 43°42' E 007°17'0 0.0
2014-Aug-30 07:33N 43°42' E 007°17'0 0.0
2014-Aug-30 06:33N 43°42' E 007°17'0 0.0
2014-Aug-30 05:33N 43°42' E 007°17'2 1.5
2014-Aug-30 04:09N 43°40' E 007°19'4 6.4
2014-Aug-30 03:28N 43°41' E 007°25'37 9.4
2014-Aug-29 23:28N 43°52' E 008°14'910.2
2014-Aug-29 22:33N 43°57' E 008°26'1010.1
2014-Aug-29 21:31N 44°01' E 008°39'10 9.9
2014-Aug-29 20:29N 44°06' E 008°51'910.2
2014-Aug-29 19:33N 44°11' E 009°03'1010.0
2014-Aug-29 18:33N 44°16' E 009°15'28 1.3
2014-Aug-28 20:31N 44°03' E 009°51'0 0.0
2014-Aug-28 19:31N 44°03' E 009°51'0 0.0
2014-Aug-28 18:31N 44°03' E 009°51'0 0.0
2014-Aug-28 17:31N 44°03' E 009°51'0 0.0
2014-Aug-28 16:31N 44°03' E 009°51'0 0.0
2014-Aug-28 15:31N 44°03' E 009°51'0 0.0
2014-Aug-28 14:31N 44°03' E 009°51'0 0.0
2014-Aug-28 13:31N 44°03' E 009°51'0 0.0
2014-Aug-28 12:31N 44°03' E 009°51'0 0.0
2014-Aug-28 11:31N 44°03' E 009°51'0 0.0
2014-Aug-28 10:31N 44°03' E 009°51'0 0.0
2014-Aug-28 09:31N 44°03' E 009°51'0 0.0
2014-Aug-28 08:31N 44°03' E 009°51'0 0.0
2014-Aug-28 07:31N 44°03' E 009°51'0 0.0
2014-Aug-28 06:31N 44°03' E 009°51'0 0.3
2014-Aug-28 05:33N 44°03' E 009°51'8 8.4
2014-Aug-28 04:33N 44°01' E 010°03'1 0.5
2014-Aug-28 03:18N 44°02' E 010°02'0 0.0
2014-Aug-28 02:30N 44°02' E 010°02'0 0.0
2014-Aug-28 01:27N 44°02' E 010°02'0 0.0
2014-Aug-28 00:33N 44°02' E 010°02'0 0.0
2014-Aug-27 23:33N 44°02' E 010°02'0 0.0
2014-Aug-27 22:33N 44°02' E 010°02'0 0.0
2014-Aug-27 21:33N 44°02' E 010°02'0 0.0
2014-Aug-27 20:30N 44°02' E 010°02'0 0.0
2014-Aug-27 19:33N 44°02' E 010°02'0 0.0
2014-Aug-27 18:27N 44°02' E 010°02'0 0.0
2014-Aug-27 17:21N 44°02' E 010°02'0 0.0
2014-Aug-27 16:21N 44°02' E 010°02'0 0.0
2014-Aug-27 15:27N 44°02' E 010°02'0 0.0
2014-Aug-27 14:33N 44°02' E 010°02'0 0.0
2014-Aug-27 13:33N 44°02' E 010°02'0 0.0
2014-Aug-27 12:33N 44°02' E 010°02'0 0.0
2014-Aug-27 11:33N 44°02' E 010°02'0 0.0
2014-Aug-27 10:33N 44°02' E 010°02'0 0.0
2014-Aug-27 09:30N 44°02' E 010°02'0 0.0
2014-Aug-27 08:30N 44°02' E 010°02'0 0.0
2014-Aug-27 07:33N 44°02' E 010°02'0 0.0
2014-Aug-27 06:33N 44°02' E 010°02'0 0.0
2014-Aug-27 05:33N 44°02' E 010°02'0 0.0
2014-Aug-27 04:33N 44°02' E 010°02'0 0.0
2014-Aug-27 03:33N 44°02' E 010°02'0 0.0
2014-Aug-27 02:30N 44°02' E 010°02'0 0.0
2014-Aug-27 01:33N 44°02' E 010°02'0 0.0
2014-Aug-27 00:33N 44°02' E 010°02'0 0.0
2014-Aug-26 23:33N 44°02' E 010°02'0 0.0
2014-Aug-26 22:30N 44°02' E 010°02'0 0.0
2014-Aug-26 21:33N 44°02' E 010°02'0 0.0
2014-Aug-26 20:33N 44°02' E 010°02'0 0.0
2014-Aug-26 19:33N 44°02' E 010°02'0 0.0
2014-Aug-26 18:30N 44°02' E 010°02'0 0.0
2014-Aug-26 17:33N 44°02' E 010°02'0 0.0
2014-Aug-26 16:33N 44°02' E 010°02'0 0.0
2014-Aug-26 15:33N 44°02' E 010°02'0 0.0
2014-Aug-26 14:33N 44°02' E 010°02'0 0.0
2014-Aug-26 13:33N 44°02' E 010°02'0 0.0
2014-Aug-26 12:33N 44°02' E 010°02'0 0.0
2014-Aug-26 11:33N 44°02' E 010°02'0 0.0
2014-Aug-26 10:33N 44°02' E 010°02'0 0.0
2014-Aug-26 09:33N 44°02' E 010°02'0 0.0
2014-Aug-26 08:33N 44°02' E 010°02'0 0.0
2014-Aug-26 07:33N 44°02' E 010°02'0 0.0
2014-Aug-26 06:33N 44°02' E 010°02'0 0.0
2014-Aug-26 05:33N 44°02' E 010°02'0 0.0
2014-Aug-26 04:33N 44°02' E 010°02'0 0.0
2014-Aug-26 03:33N 44°02' E 010°02'0 0.0
2014-Aug-26 02:33N 44°02' E 010°02'0 0.0
2014-Aug-26 01:33N 44°02' E 010°02'0 0.0
2014-Aug-26 00:30N 44°02' E 010°02'0 0.0
2014-Aug-25 23:33N 44°02' E 010°02'0 0.0
2014-Aug-25 22:33N 44°02' E 010°02'4 4.1
2014-Aug-25 21:34N 43°58' E 010°03'10 9.9
2014-Aug-25 20:34N 43°48' E 010°05'10 9.6
2014-Aug-25 19:33N 43°39' E 010°06'9 9.1
2014-Aug-25 18:33N 43°30' E 010°06'9 8.7
2014-Aug-25 17:33N 43°21' E 010°09'10 0.4
2014-Aug-24 18:07N 43°12' E 010°16'6 9.8
2014-Aug-24 17:32N 43°18' E 010°15'10 9.8
2014-Aug-24 16:33N 43°27' E 010°13'7 2.1
2014-Aug-24 13:14N 43°33' E 010°18'0 0.0
2014-Aug-24 12:29N 43°33' E 010°18'0 0.0
2014-Aug-24 11:32N 43°33' E 010°18'0 0.0
2014-Aug-24 10:17N 43°33' E 010°18'0 0.0
2014-Aug-24 09:32N 43°33' E 010°18'0 0.0
2014-Aug-24 08:17N 43°33' E 010°18'0 0.0
2014-Aug-24 07:31N 43°33' E 010°18'0 0.0
2014-Aug-24 06:34N 43°33' E 010°18'0 0.0
2014-Aug-24 05:34N 43°33' E 010°18'0 0.0
2014-Aug-24 04:34N 43°33' E 010°18'0 0.0
2014-Aug-24 03:33N 43°33' E 010°18'0 0.0
2014-Aug-24 02:34N 43°33' E 010°18'0 0.0
2014-Aug-24 01:34N 43°33' E 010°18'0 0.0
2014-Aug-24 00:33N 43°33' E 010°18'0 0.0
2014-Aug-23 23:34N 43°33' E 010°18'0 0.0
2014-Aug-23 22:34N 43°33' E 010°18'0 0.0
2014-Aug-23 21:34N 43°33' E 010°18'0 0.0
2014-Aug-23 20:33N 43°33' E 010°18'0 0.0
2014-Aug-23 19:33N 43°33' E 010°18'18 0.4
2014-Aug-22 01:19N 43°15' E 010°11'810.5
2014-Aug-22 00:33N 43°23' E 010°09'1110.7
2014-Aug-21 23:33N 43°33' E 010°06'10 9.8
2014-Aug-21 22:33N 43°43' E 010°05'9 9.4
2014-Aug-21 21:33N 43°53' E 010°04'9 9.2
2014-Aug-21 20:33N 44°02' E 010°02'0 0.3
2014-Aug-21 19:28N 44°02' E 010°02'0 0.0
2014-Aug-21 18:31N 44°02' E 010°02'0 0.0
2014-Aug-21 17:31N 44°02' E 010°02'0 0.0
2014-Aug-21 16:31N 44°02' E 010°02'0 0.0
2014-Aug-21 15:31N 44°02' E 010°02'0 0.0
2014-Aug-21 14:33N 44°02' E 010°02'0 0.0
2014-Aug-21 13:33N 44°02' E 010°02'0 0.0
2014-Aug-21 12:33N 44°02' E 010°02'0 0.0
2014-Aug-21 11:33N 44°02' E 010°02'0 0.0
2014-Aug-21 10:34N 44°02' E 010°02'0 0.0
2014-Aug-21 09:33N 44°02' E 010°02'0 0.0
2014-Aug-21 08:33N 44°02' E 010°02'0 0.0
2014-Aug-21 07:33N 44°02' E 010°02'0 0.0
2014-Aug-21 06:33N 44°02' E 010°02'0 0.0
2014-Aug-21 05:33N 44°02' E 010°02'0 0.0
2014-Aug-21 04:33N 44°02' E 010°02'0 0.0
2014-Aug-21 03:33N 44°02' E 010°02'0 0.0
2014-Aug-21 02:33N 44°02' E 010°02'0 0.0
2014-Aug-21 01:33N 44°02' E 010°02'  
Track history (hours):
 
Tides and Currents Weather Stations Pressure Air Temp Water Temp Dewpoint Dewpoint Depression Visibility Wind Speed Wind Dir Waves Ship Positions

Arethusa

Last reported at 2014-Aug-31 01:33 UTC. Time now 2014-Aug-31 02:34 UTC.
Position N 43°42' E 007°17'.

Length 60 m; draft 3 m.

Type: Passenger vessel. MMSI: 249069000.

Date/timePositionNaut miles runAvg speedWind from/ knotsBaromVisibWave heightAir tempDewpointWater temp
2014-Aug-31 01:33N 43°42' E 007°17'0 0.0
2014-Aug-31 00:33N 43°42' E 007°17'0 0.0
2014-Aug-30 23:33N 43°42' E 007°17'0 0.0
2014-Aug-30 22:33N 43°42' E 007°17'0 0.0
2014-Aug-30 21:33N 43°42' E 007°17'0 0.0
2014-Aug-30 20:33N 43°42' E 007°17'0 0.0
2014-Aug-30 19:33N 43°42' E 007°17'0 0.0
2014-Aug-30 18:33N 43°42' E 007°17'0 0.0
2014-Aug-30 17:33N 43°42' E 007°17'0 0.0
2014-Aug-30 16:33N 43°42' E 007°17'0 0.0
2014-Aug-30 15:33N 43°42' E 007°17'0 0.0
2014-Aug-30 14:33N 43°42' E 007°17'0 0.0
2014-Aug-30 13:33N 43°42' E 007°17'0 0.0
2014-Aug-30 12:33N 43°42' E 007°17'0 0.0
2014-Aug-30 11:33N 43°42' E 007°17'0 0.0
2014-Aug-30 10:33N 43°42' E 007°17'0 0.0
2014-Aug-30 09:33N 43°42' E 007°17'0 0.0
2014-Aug-30 08:33N 43°42' E 007°17'0 0.0
2014-Aug-30 07:33N 43°42' E 007°17'0 0.0
2014-Aug-30 06:33N 43°42' E 007°17'0 0.0
2014-Aug-30 05:33N 43°42' E 007°17'2 1.5
2014-Aug-30 04:09N 43°40' E 007°19'4 6.4
2014-Aug-30 03:28N 43°41' E 007°25'37 9.4
2014-Aug-29 23:28N 43°52' E 008°14'910.2
2014-Aug-29 22:33N 43°57' E 008°26'1010.1
2014-Aug-29 21:31N 44°01' E 008°39'10 9.9
2014-Aug-29 20:29N 44°06' E 008°51'910.2
2014-Aug-29 19:33N 44°11' E 009°03'1010.0
2014-Aug-29 18:33N 44°16' E 009°15'28 1.3
2014-Aug-28 20:31N 44°03' E 009°51'0 0.0
2014-Aug-28 19:31N 44°03' E 009°51'0 0.0
2014-Aug-28 18:31N 44°03' E 009°51'0 0.0
2014-Aug-28 17:31N 44°03' E 009°51'0 0.0
2014-Aug-28 16:31N 44°03' E 009°51'0 0.0
2014-Aug-28 15:31N 44°03' E 009°51'0 0.0
2014-Aug-28 14:31N 44°03' E 009°51'0 0.0
2014-Aug-28 13:31N 44°03' E 009°51'0 0.0
2014-Aug-28 12:31N 44°03' E 009°51'0 0.0
2014-Aug-28 11:31N 44°03' E 009°51'0 0.0
2014-Aug-28 10:31N 44°03' E 009°51'0 0.0
2014-Aug-28 09:31N 44°03' E 009°51'0 0.0
2014-Aug-28 08:31N 44°03' E 009°51'0 0.0
2014-Aug-28 07:31N 44°03' E 009°51'0 0.0
2014-Aug-28 06:31N 44°03' E 009°51'0 0.3
2014-Aug-28 05:33N 44°03' E 009°51'8 8.4
2014-Aug-28 04:33N 44°01' E 010°03'1 0.5
2014-Aug-28 03:18N 44°02' E 010°02'0 0.0
2014-Aug-28 02:30N 44°02' E 010°02'0 0.0
2014-Aug-28 01:27N 44°02' E 010°02'0 0.0
2014-Aug-28 00:33N 44°02' E 010°02'0 0.0
2014-Aug-27 23:33N 44°02' E 010°02'0 0.0
2014-Aug-27 22:33N 44°02' E 010°02'0 0.0
2014-Aug-27 21:33N 44°02' E 010°02'0 0.0
2014-Aug-27 20:30N 44°02' E 010°02'0 0.0
2014-Aug-27 19:33N 44°02' E 010°02'0 0.0
2014-Aug-27 18:27N 44°02' E 010°02'0 0.0
2014-Aug-27 17:21N 44°02' E 010°02'0 0.0
2014-Aug-27 16:21N 44°02' E 010°02'0 0.0
2014-Aug-27 15:27N 44°02' E 010°02'0 0.0
2014-Aug-27 14:33N 44°02' E 010°02'0 0.0
2014-Aug-27 13:33N 44°02' E 010°02'0 0.0
2014-Aug-27 12:33N 44°02' E 010°02'0 0.0
2014-Aug-27 11:33N 44°02' E 010°02'0 0.0
2014-Aug-27 10:33N 44°02' E 010°02'0 0.0
2014-Aug-27 09:30N 44°02' E 010°02'0 0.0
2014-Aug-27 08:30N 44°02' E 010°02'0 0.0
2014-Aug-27 07:33N 44°02' E 010°02'0 0.0
2014-Aug-27 06:33N 44°02' E 010°02'0 0.0
2014-Aug-27 05:33N 44°02' E 010°02'0 0.0
2014-Aug-27 04:33N 44°02' E 010°02'0 0.0
2014-Aug-27 03:33N 44°02' E 010°02'0 0.0
2014-Aug-27 02:30N 44°02' E 010°02'0 0.0
2014-Aug-27 01:33N 44°02' E 010°02'0 0.0
2014-Aug-27 00:33N 44°02' E 010°02'0 0.0
2014-Aug-26 23:33N 44°02' E 010°02'0 0.0
2014-Aug-26 22:30N 44°02' E 010°02'0 0.0
2014-Aug-26 21:33N 44°02' E 010°02'0 0.0
2014-Aug-26 20:33N 44°02' E 010°02'0 0.0
2014-Aug-26 19:33N 44°02' E 010°02'0 0.0
2014-Aug-26 18:30N 44°02' E 010°02'0 0.0
2014-Aug-26 17:33N 44°02' E 010°02'0 0.0
2014-Aug-26 16:33N 44°02' E 010°02'0 0.0
2014-Aug-26 15:33N 44°02' E 010°02'0 0.0
2014-Aug-26 14:33N 44°02' E 010°02'0 0.0
2014-Aug-26 13:33N 44°02' E 010°02'0 0.0
2014-Aug-26 12:33N 44°02' E 010°02'0 0.0
2014-Aug-26 11:33N 44°02' E 010°02'0 0.0
2014-Aug-26 10:33N 44°02' E 010°02'0 0.0
2014-Aug-26 09:33N 44°02' E 010°02'0 0.0
2014-Aug-26 08:33N 44°02' E 010°02'0 0.0
2014-Aug-26 07:33N 44°02' E 010°02'0 0.0
2014-Aug-26 06:33N 44°02' E 010°02'0 0.0
2014-Aug-26 05:33N 44°02' E 010°02'0 0.0
2014-Aug-26 04:33N 44°02' E 010°02'0 0.0
2014-Aug-26 03:33N 44°02' E 010°02'0 0.0
2014-Aug-26 02:33N 44°02' E 010°02'0 0.0
2014-Aug-26 01:33N 44°02' E 010°02'0 0.0
2014-Aug-26 00:30N 44°02' E 010°02'0 0.0
2014-Aug-25 23:33N 44°02' E 010°02'0 0.0
2014-Aug-25 22:33N 44°02' E 010°02'4 4.1
2014-Aug-25 21:34N 43°58' E 010°03'10 9.9
2014-Aug-25 20:34N 43°48' E 010°05'10 9.6
2014-Aug-25 19:33N 43°39' E 010°06'9 9.1
2014-Aug-25 18:33N 43°30' E 010°06'9 8.7
2014-Aug-25 17:33N 43°21' E 010°09'10 0.4
2014-Aug-24 18:07N 43°12' E 010°16'6 9.8
2014-Aug-24 17:32N 43°18' E 010°15'10 9.8
2014-Aug-24 16:33N 43°27' E 010°13'7 2.1
2014-Aug-24 13:14N 43°33' E 010°18'0 0.0
2014-Aug-24 12:29N 43°33' E 010°18'0 0.0
2014-Aug-24 11:32N 43°33' E 010°18'0 0.0
2014-Aug-24 10:17N 43°33' E 010°18'0 0.0
2014-Aug-24 09:32N 43°33' E 010°18'0 0.0
2014-Aug-24 08:17N 43°33' E 010°18'0 0.0
2014-Aug-24 07:31N 43°33' E 010°18'0 0.0
2014-Aug-24 06:34N 43°33' E 010°18'0 0.0
2014-Aug-24 05:34N 43°33' E 010°18'0 0.0
2014-Aug-24 04:34N 43°33' E 010°18'0 0.0
2014-Aug-24 03:33N 43°33' E 010°18'0 0.0
2014-Aug-24 02:34N 43°33' E 010°18'0 0.0
2014-Aug-24 01:34N 43°33' E 010°18'0 0.0
2014-Aug-24 00:33N 43°33' E 010°18'0 0.0
2014-Aug-23 23:34N 43°33' E 010°18'0 0.0
2014-Aug-23 22:34N 43°33' E 010°18'0 0.0
2014-Aug-23 21:34N 43°33' E 010°18'0 0.0
2014-Aug-23 20:33N 43°33' E 010°18'0 0.0
2014-Aug-23 19:33N 43°33' E 010°18'18 0.4
2014-Aug-22 01:19N 43°15' E 010°11'810.5
2014-Aug-22 00:33N 43°23' E 010°09'1110.7
2014-Aug-21 23:33N 43°33' E 010°06'10 9.8
2014-Aug-21 22:33N 43°43' E 010°05'9 9.4
2014-Aug-21 21:33N 43°53' E 010°04'9 9.2
2014-Aug-21 20:33N 44°02' E 010°02'0 0.3
2014-Aug-21 19:28N 44°02' E 010°02'0 0.0
2014-Aug-21 18:31N 44°02' E 010°02'0 0.0
2014-Aug-21 17:31N 44°02' E 010°02'0 0.0
2014-Aug-21 16:31N 44°02' E 010°02'0 0.0
2014-Aug-21 15:31N 44°02' E 010°02'0 0.0
2014-Aug-21 14:33N 44°02' E 010°02'0 0.0
2014-Aug-21 13:33N 44°02' E 010°02'0 0.0
2014-Aug-21 12:33N 44°02' E 010°02'0 0.0
2014-Aug-21 11:33N 44°02' E 010°02'0 0.0
2014-Aug-21 10:34N 44°02' E 010°02'0 0.0
2014-Aug-21 09:33N 44°02' E 010°02'0 0.0
2014-Aug-21 08:33N 44°02' E 010°02'0 0.0
2014-Aug-21 07:33N 44°02' E 010°02'0 0.0
2014-Aug-21 06:33N 44°02' E 010°02'0 0.0
2014-Aug-21 05:33N 44°02' E 010°02'0 0.0
2014-Aug-21 04:33N 44°02' E 010°02'0 0.0
2014-Aug-21 03:33N 44°02' E 010°02'0 0.0
2014-Aug-21 02:33N 44°02' E 010°02'0 0.0
2014-Aug-21 01:33N 44°02' E 010°02'  

Dump ship's entire track history